createdAt,value
2022-09-06T00:00:47.580Z,89031.72
2022-09-06T00:03:32.332Z,89029.53
2022-09-06T00:06:17.069Z,89037.19
2022-09-06T00:09:01.919Z,89026.63
2022-09-06T00:11:46.619Z,89021.94
2022-09-06T00:14:31.378Z,89026.16
2022-09-06T00:17:16.135Z,89026.75
2022-09-06T00:20:00.887Z,89024.41
2022-09-06T00:22:45.561Z,89025.06
2022-09-06T00:25:30.672Z,89023.59
2022-09-06T00:28:15.351Z,89023.09
2022-09-06T00:31:00.213Z,89018.06
2022-09-06T00:33:44.915Z,89013.91
2022-09-06T00:36:29.747Z,89013.97
2022-09-06T00:39:14.591Z,89004.88
2022-09-06T00:41:59.313Z,88999.47
2022-09-06T00:44:44.197Z,88995.06
2022-09-06T00:47:28.958Z,89008.06
2022-09-06T00:50:13.839Z,89006.78
2022-09-06T00:52:58.514Z,89007.63
2022-09-06T00:55:43.393Z,89014.88
2022-09-06T00:58:28.313Z,89019.88
2022-09-06T01:01:13.680Z,89022.06
2022-09-06T01:03:58.784Z,89009.59
2022-09-06T01:06:43.489Z,89011.41
2022-09-06T01:09:28.365Z,89009.69
2022-09-06T01:12:13.058Z,89014.50
2022-09-06T01:14:57.892Z,89022.13
2022-09-06T01:17:42.663Z,89025.00
2022-09-06T01:20:27.523Z,89028.84
2022-09-06T01:23:12.135Z,89034.19
2022-09-06T01:25:56.973Z,89035.44
2022-09-06T01:28:41.686Z,89031.38
2022-09-06T01:31:26.398Z,89031.13
2022-09-06T01:34:11.774Z,89023.84
2022-09-06T01:37:09.426Z,89027.66
2022-09-06T01:39:55.409Z,89033.50
2022-09-06T01:42:40.491Z,89027.91
2022-09-06T01:45:25.436Z,89033.22
2022-09-06T01:48:10.155Z,89031.81
2022-09-06T01:50:54.959Z,89038.88
2022-09-06T01:53:39.628Z,89032.50
2022-09-06T01:56:24.439Z,89035.25
2022-09-06T01:59:09.003Z,89026.63
2022-09-06T02:01:53.915Z,89022.03
2022-09-06T02:04:39.101Z,89018.13
2022-09-06T02:07:23.839Z,89013.38
2022-09-06T02:10:08.616Z,89011.59
2022-09-06T02:12:53.436Z,89011.69
2022-09-06T02:15:38.231Z,89013.06
2022-09-06T02:18:23.180Z,89002.94
2022-09-06T02:21:08.362Z,89011.16
2022-09-06T02:23:53.012Z,89010.56
2022-09-06T02:26:37.953Z,89008.34
2022-09-06T02:29:22.653Z,89007.03
2022-09-06T02:32:07.561Z,89003.25
2022-09-06T02:34:52.364Z,89002.56
2022-09-06T02:37:37.138Z,89006.81
2022-09-06T02:40:21.881Z,89001.00
2022-09-06T02:43:06.611Z,89006.03
2022-09-06T02:45:51.520Z,89004.84
2022-09-06T02:48:36.707Z,89005.72
2022-09-06T02:51:21.493Z,89008.88
2022-09-06T02:54:06.109Z,88994.34
2022-09-06T02:56:52.487Z,89003.75
2022-09-06T02:59:37.610Z,89002.94
2022-09-06T03:02:22.475Z,89001.44
2022-09-06T03:05:07.721Z,89003.25
2022-09-06T03:07:52.496Z,89007.91
2022-09-06T03:10:37.378Z,88996.63
2022-09-06T03:13:22.539Z,89001.41
2022-09-06T03:16:07.362Z,89005.13
2022-09-06T03:18:52.144Z,89001.59
2022-09-06T03:21:36.815Z,89006.78
2022-09-06T03:24:21.568Z,89000.00
2022-09-06T03:27:06.276Z,88997.50
2022-09-06T03:29:51.181Z,89003.94
2022-09-06T03:32:35.735Z,89003.94
2022-09-06T03:35:20.648Z,89005.25
2022-09-06T03:38:05.316Z,89001.16
2022-09-06T03:40:50.022Z,88999.53
2022-09-06T03:43:34.753Z,88999.81
2022-09-06T03:46:19.681Z,89000.50
2022-09-06T03:49:04.333Z,88995.47
2022-09-06T03:51:49.154Z,89004.53
2022-09-06T03:54:33.784Z,89008.59
2022-09-06T03:57:18.596Z,89006.75
2022-09-06T04:00:03.341Z,89002.91
2022-09-06T04:02:48.187Z,89008.00
2022-09-06T04:05:33.448Z,89004.00
2022-09-06T04:08:18.280Z,88999.28
2022-09-06T04:11:03.111Z,89008.47
2022-09-06T04:13:47.804Z,89008.19
2022-09-06T04:16:32.631Z,88998.44
2022-09-06T04:19:17.988Z,89001.22
2022-09-06T04:22:02.785Z,89008.00
2022-09-06T04:24:47.668Z,89000.13
2022-09-06T04:27:32.392Z,88997.50
2022-09-06T04:30:17.115Z,89004.03
2022-09-06T04:33:01.774Z,89007.91
2022-09-06T04:35:46.535Z,88999.84
2022-09-06T04:38:31.431Z,88996.78
2022-09-06T04:41:16.272Z,88993.13
2022-09-06T04:44:01.159Z,88988.88
2022-09-06T04:46:45.786Z,88981.16
2022-09-06T04:49:30.608Z,88977.25
2022-09-06T04:52:15.299Z,88980.34
2022-09-06T04:55:00.007Z,88983.25
2022-09-06T04:57:48.469Z,88989.09
2022-09-06T05:00:35.430Z,88987.91
2022-09-06T05:03:20.299Z,88984.56
2022-09-06T05:06:04.961Z,88980.75
2022-09-06T05:08:49.778Z,88984.59
2022-09-06T05:11:34.558Z,88981.59
2022-09-06T05:14:19.197Z,88989.94
2022-09-06T05:17:03.900Z,88989.59
2022-09-06T05:19:48.603Z,88991.22
2022-09-06T05:22:33.272Z,88999.38
2022-09-06T05:25:18.028Z,88999.97
2022-09-06T05:28:02.946Z,89013.38
2022-09-06T05:30:47.598Z,89005.41
2022-09-06T05:33:32.410Z,89005.13
2022-09-06T05:36:17.124Z,89000.41
2022-09-06T05:39:01.901Z,88999.41
2022-09-06T05:41:46.594Z,88998.06
2022-09-06T05:44:31.419Z,89000.38
2022-09-06T05:47:16.286Z,88998.13
2022-09-06T05:50:01.070Z,88989.38
2022-09-06T05:52:45.772Z,88996.69
2022-09-06T05:55:30.447Z,88999.69
2022-09-06T05:58:15.144Z,88994.16
2022-09-06T06:00:59.904Z,88990.81
2022-09-06T06:03:44.589Z,88998.91
2022-09-06T06:06:29.385Z,88989.66
2022-09-06T06:09:14.290Z,88988.63
2022-09-06T06:11:58.977Z,88993.22
2022-09-06T06:14:43.849Z,88993.81
2022-09-06T06:17:28.547Z,88988.38
2022-09-06T06:20:13.368Z,88983.94
2022-09-06T06:22:58.205Z,88989.63
2022-09-06T06:25:42.970Z,88988.16
2022-09-06T06:28:27.912Z,88992.22
2022-09-06T06:31:13.129Z,88991.44
2022-09-06T06:33:58.425Z,88982.47
2022-09-06T06:36:43.136Z,88992.63
2022-09-06T06:39:27.897Z,88995.59
2022-09-06T06:42:13.146Z,88987.34
2022-09-06T06:44:57.909Z,88988.50
2022-09-06T06:47:42.807Z,88991.50
2022-09-06T06:50:27.429Z,88993.56
2022-09-06T06:53:12.288Z,88995.22
2022-09-06T06:55:56.902Z,88987.22
2022-09-06T06:58:41.762Z,88993.75
2022-09-06T07:01:26.677Z,88988.75
2022-09-06T07:04:11.804Z,88980.22
2022-09-06T07:13:06.362Z,88981.72
2022-09-06T07:15:51.132Z,88985.28
2022-09-06T07:18:35.802Z,88987.34
2022-09-06T07:24:20.952Z,88981.63
2022-09-06T07:30:10.780Z,88982.06
2022-09-06T07:32:55.438Z,88971.03
2022-09-06T07:35:40.281Z,88968.59
2022-09-06T07:38:24.937Z,88971.59
2022-09-06T07:41:09.936Z,88961.66
2022-09-06T07:43:54.659Z,88958.88
2022-09-06T07:46:39.511Z,88958.59
2022-09-06T07:49:24.612Z,88953.56
2022-09-06T07:55:14.497Z,88959.97
2022-09-06T07:57:59.324Z,88958.38
2022-09-06T08:00:44.164Z,88958.88
2022-09-06T08:03:29.411Z,88951.84
2022-09-06T08:06:14.701Z,88952.16
2022-09-06T08:08:59.764Z,88948.75
2022-09-06T08:11:44.834Z,88953.72
2022-09-06T08:14:29.546Z,88947.34
2022-09-06T08:17:14.187Z,88944.72
2022-09-06T08:19:59.073Z,88938.34
2022-09-06T08:22:43.683Z,88942.56
2022-09-06T08:25:28.405Z,88947.31
2022-09-06T08:28:13.018Z,88948.41
2022-09-06T08:30:57.831Z,88948.91
2022-09-06T08:33:42.617Z,88949.16
2022-09-06T08:36:27.460Z,88939.00
2022-09-06T08:39:12.322Z,88932.97
2022-09-06T08:41:57.318Z,88937.31
2022-09-06T08:44:58.008Z,88947.69
2022-09-06T08:47:43.412Z,88946.25
2022-09-06T08:50:28.194Z,88937.19
2022-09-06T08:53:17.107Z,88942.91
2022-09-06T08:56:02.555Z,88942.34
2022-09-06T08:58:47.412Z,88939.34
2022-09-06T09:01:32.101Z,88943.47
2022-09-06T09:04:16.927Z,88938.44
2022-09-06T09:07:01.702Z,88945.50
2022-09-06T09:09:46.563Z,88937.63
2022-09-06T09:12:31.305Z,88941.47
2022-09-06T09:15:16.087Z,88933.19
2022-09-06T09:18:00.932Z,88933.19
2022-09-06T09:20:45.713Z,88932.81
2022-09-06T09:23:30.430Z,88921.09
2022-09-06T09:26:15.135Z,88919.56
2022-09-06T09:29:00.021Z,88916.22
2022-09-06T09:31:44.784Z,88923.56
2022-09-06T09:34:29.461Z,88920.50
2022-09-06T09:40:18.996Z,88903.47
2022-09-06T09:43:03.802Z,88912.53
2022-09-06T09:45:48.565Z,88895.16
2022-09-06T09:48:33.351Z,88894.50
2022-09-06T09:51:25.442Z,88895.34
2022-09-06T09:54:11.941Z,88882.75
2022-09-06T09:56:56.689Z,88887.69
2022-09-06T09:59:41.627Z,88885.16
2022-09-06T10:02:26.195Z,88876.72
2022-09-06T10:05:11.068Z,88878.94
2022-09-06T10:07:55.740Z,88875.16
2022-09-06T10:10:40.529Z,88871.47
2022-09-06T10:13:25.199Z,88860.66
2022-09-06T10:16:10.019Z,88858.78
2022-09-06T10:18:55.133Z,88859.47
2022-09-06T10:21:39.903Z,88859.72
2022-09-06T10:27:14.547Z,88848.66
2022-09-06T10:29:59.297Z,88846.47
2022-09-06T10:32:43.994Z,88832.84
2022-09-06T10:35:28.861Z,88830.19
2022-09-06T10:38:13.653Z,88835.25
2022-09-06T10:40:58.352Z,88822.34
2022-09-06T10:43:43.166Z,88823.25
2022-09-06T10:46:27.899Z,88819.78
2022-09-06T10:49:12.562Z,88818.56
2022-09-06T10:51:57.256Z,88805.75
2022-09-06T10:54:41.944Z,88808.69
2022-09-06T11:00:31.341Z,88798.72
2022-09-06T11:06:22.492Z,88793.28
2022-09-06T11:09:09.426Z,88794.09
2022-09-06T11:11:54.287Z,88790.75
2022-09-06T11:14:39.379Z,88789.03
2022-09-06T11:17:24.482Z,88791.13
2022-09-06T11:20:09.245Z,88793.06
2022-09-06T11:22:54.294Z,88782.06
2022-09-06T11:25:39.230Z,88773.28
2022-09-06T11:28:23.847Z,88774.41
2022-09-06T11:31:08.706Z,88769.06
2022-09-06T11:33:54.540Z,88758.75
2022-09-06T11:36:40.652Z,88751.09
2022-09-06T11:42:30.327Z,88746.00
2022-09-06T11:45:15.103Z,88743.56
2022-09-06T11:47:59.879Z,88742.63
2022-09-06T11:50:44.591Z,88742.84
2022-09-06T11:53:29.519Z,88727.66
2022-09-06T11:56:14.542Z,88731.69
2022-09-06T11:58:59.488Z,88730.41
2022-09-06T12:01:44.124Z,88725.53
2022-09-06T12:04:28.929Z,88720.91
2022-09-06T12:07:13.617Z,88716.66
2022-09-06T12:09:58.468Z,88710.84
2022-09-06T12:12:43.242Z,88713.91
2022-09-06T12:15:27.953Z,88708.00
2022-09-06T12:18:12.768Z,88702.78
2022-09-06T12:20:57.480Z,88698.25
2022-09-06T12:23:42.362Z,88700.03
2022-09-06T12:26:27.145Z,88693.84
2022-09-06T12:29:11.871Z,88689.78
2022-09-06T12:31:56.358Z,88685.03
2022-09-06T12:34:41.130Z,88680.88
2022-09-06T12:37:25.862Z,88678.41
2022-09-06T12:40:10.674Z,88675.03
2022-09-06T12:42:55.850Z,88670.22
2022-09-06T12:45:40.615Z,88680.59
2022-09-06T12:48:25.416Z,88666.50
2022-09-06T12:51:10.228Z,88667.91
2022-09-06T12:53:55.056Z,88668.28
2022-09-06T12:56:39.763Z,88670.50
2022-09-06T12:59:24.563Z,88667.25
2022-09-06T13:02:09.325Z,88666.50
2022-09-06T13:04:54.641Z,88667.03
2022-09-06T13:07:39.299Z,88655.19
2022-09-06T13:10:24.141Z,88656.44
2022-09-06T13:13:09.038Z,88656.28
2022-09-06T13:15:54.022Z,88650.41
2022-09-06T13:18:39.231Z,88643.38
2022-09-06T13:21:23.907Z,88647.28
2022-09-06T13:24:08.589Z,88642.91
2022-09-06T13:26:53.453Z,88650.88
2022-09-06T13:29:38.253Z,88650.50
2022-09-06T13:32:23.011Z,88648.75
2022-09-06T13:35:07.869Z,88650.88
2022-09-06T13:37:52.606Z,88645.00
2022-09-06T13:40:53.773Z,88641.41
2022-09-06T13:43:42.413Z,88634.81
2022-09-06T13:46:27.220Z,88637.44
2022-09-06T13:49:12.372Z,88632.47
2022-09-06T13:51:57.218Z,88619.88
2022-09-06T13:54:41.887Z,88620.31
2022-09-06T13:57:26.759Z,88614.56
2022-09-06T14:00:11.507Z,88609.06
2022-09-06T14:02:56.363Z,88605.56
2022-09-06T14:05:41.543Z,88612.38
2022-09-06T14:08:34.597Z,88603.19
2022-09-06T14:11:32.546Z,88597.44
2022-09-06T14:14:17.133Z,88593.88
2022-09-06T14:17:01.878Z,88594.47
2022-09-06T14:19:46.556Z,88588.13
2022-09-06T14:22:31.258Z,88587.28
2022-09-06T14:25:16.085Z,88586.75
2022-09-06T14:28:00.913Z,88587.47
2022-09-06T14:30:45.739Z,88581.56
2022-09-06T14:33:30.422Z,88580.28
2022-09-06T14:36:15.278Z,88584.59
2022-09-06T14:38:59.935Z,88577.41
2022-09-06T14:41:44.789Z,88584.00
2022-09-06T14:44:29.483Z,88575.75
2022-09-06T14:47:14.298Z,88576.53
2022-09-06T14:49:59.005Z,88586.97
2022-09-06T14:52:43.679Z,88572.63
2022-09-06T14:55:28.386Z,88572.03
2022-09-06T14:58:13.229Z,88565.31
2022-09-06T15:00:57.994Z,88573.78
2022-09-06T15:03:42.604Z,88570.59
2022-09-06T15:06:27.346Z,88566.47
2022-09-06T15:09:12.009Z,88562.41
2022-09-06T15:11:56.843Z,88567.03
2022-09-06T15:14:41.462Z,88562.31
2022-09-06T15:17:26.208Z,88563.78
2022-09-06T15:20:10.886Z,88563.00
2022-09-06T15:23:15.193Z,88559.88
2022-09-06T15:26:00.624Z,88563.53
2022-09-06T15:28:45.149Z,88559.56
2022-09-06T15:31:29.911Z,88555.16
2022-09-06T15:34:14.596Z,88554.00
2022-09-06T15:36:59.408Z,88550.25
2022-09-06T15:39:44.185Z,88564.94
2022-09-06T15:42:29.440Z,88553.91
2022-09-06T15:45:14.300Z,88562.72
2022-09-06T15:47:58.999Z,88577.72
2022-09-06T15:50:51.339Z,88568.34
2022-09-06T15:53:37.167Z,88572.72
2022-09-06T15:56:21.871Z,88576.09
2022-09-06T15:59:06.647Z,88567.72
2022-09-06T16:01:51.278Z,88578.53
2022-09-06T16:04:36.144Z,88579.31
2022-09-06T16:07:20.735Z,88576.81
2022-09-06T16:10:05.560Z,88570.97
2022-09-06T16:12:50.734Z,88576.41
2022-09-06T16:15:35.469Z,88593.72
2022-09-06T16:18:20.334Z,88590.19
2022-09-06T16:21:05.114Z,88597.00
2022-09-06T16:23:49.989Z,88600.69
2022-09-06T16:26:34.729Z,88604.31
2022-09-06T16:29:19.528Z,88612.94
2022-09-06T16:32:04.216Z,88619.91
2022-09-06T16:34:49.019Z,88616.25
2022-09-06T16:37:33.858Z,88621.09
2022-09-06T16:40:18.548Z,88623.13
2022-09-06T16:43:03.455Z,88626.09
2022-09-06T16:45:48.227Z,88607.78
2022-09-06T16:48:32.941Z,88616.09
2022-09-06T16:51:17.742Z,88613.25
2022-09-06T16:54:02.529Z,88608.88
2022-09-06T16:56:47.270Z,88614.19
2022-09-06T16:59:32.014Z,88619.84
2022-09-06T17:02:16.836Z,88621.50
2022-09-06T17:05:02.122Z,88618.44
2022-09-06T17:07:46.747Z,88618.00
2022-09-06T17:10:31.479Z,88624.16
2022-09-06T17:13:16.303Z,88628.63
2022-09-06T17:16:00.930Z,88630.66
2022-09-06T17:18:45.888Z,88634.91
2022-09-06T17:21:30.651Z,88628.69
2022-09-06T17:24:15.439Z,88633.22
2022-09-06T17:27:00.142Z,88646.16
2022-09-06T17:29:45.015Z,88654.34
2022-09-06T17:32:29.834Z,88662.13
2022-09-06T17:35:14.613Z,88661.22
2022-09-06T17:37:59.313Z,88678.78
2022-09-06T17:40:44.093Z,88687.06
2022-09-06T17:43:28.891Z,88701.13
2022-09-06T17:46:13.643Z,88705.09
2022-09-06T17:48:58.313Z,88701.13
2022-09-06T17:51:43.017Z,88712.59
2022-09-06T17:54:27.721Z,88718.72
2022-09-06T17:57:12.371Z,88735.25
2022-09-06T17:59:57.211Z,88732.84
2022-09-06T18:02:41.981Z,88731.22
2022-09-06T18:05:26.761Z,88730.06
2022-09-06T18:08:12.029Z,88728.56
2022-09-06T18:10:56.758Z,88735.34
2022-09-06T18:13:41.637Z,88746.34
2022-09-06T18:16:26.451Z,88741.31
2022-09-06T18:19:11.754Z,88737.72
2022-09-06T18:21:56.368Z,88753.25
2022-09-06T18:24:41.042Z,88756.81
2022-09-06T18:27:25.804Z,88760.50
2022-09-06T18:30:14.630Z,88767.13
2022-09-06T18:32:59.927Z,88767.75
2022-09-06T18:35:44.726Z,88770.47
2022-09-06T18:38:29.703Z,88785.09
2022-09-06T18:41:14.994Z,88809.16
2022-09-06T18:43:59.684Z,88826.44
2022-09-06T18:46:44.531Z,88847.16
2022-09-06T18:49:29.446Z,88880.63
2022-09-06T18:52:14.204Z,88911.75
2022-09-06T18:54:58.866Z,88918.16
2022-09-06T18:57:44.066Z,88914.16
2022-09-06T19:00:28.945Z,88911.72
2022-09-06T19:03:13.874Z,88896.06
2022-09-06T19:05:58.657Z,88869.25
2022-09-06T19:08:43.429Z,88872.28
2022-09-06T19:11:28.358Z,88873.69
2022-09-06T19:14:13.156Z,88866.59
2022-09-06T19:16:57.789Z,88837.84
2022-09-06T19:19:42.433Z,88820.47
2022-09-06T19:22:27.375Z,88817.16
2022-09-06T19:25:12.094Z,88820.69
2022-09-06T19:27:56.866Z,88828.47
2022-09-06T19:30:41.565Z,88843.06
2022-09-06T19:33:26.390Z,88852.41
2022-09-06T19:36:12.364Z,88856.72
2022-09-06T19:39:05.730Z,88863.13
2022-09-06T19:41:50.962Z,88859.97
2022-09-06T19:44:35.810Z,88864.13
2022-09-06T19:47:20.560Z,88869.69
2022-09-06T19:50:05.346Z,88879.72
2022-09-06T19:52:49.915Z,88872.50
2022-09-06T19:55:34.733Z,88872.91
2022-09-06T19:58:19.445Z,88874.00
2022-09-06T20:01:04.494Z,88879.13
2022-09-06T20:03:49.743Z,88878.97
2022-09-06T20:06:34.547Z,88878.97
2022-09-06T20:09:19.344Z,88880.03
2022-09-06T20:12:04.297Z,88869.91
2022-09-06T20:14:49.663Z,88869.22
2022-09-06T20:17:34.684Z,88866.69
2022-09-06T20:20:19.765Z,88860.88
2022-09-06T20:23:04.679Z,88850.16
2022-09-06T20:25:49.460Z,88850.47
2022-09-06T20:28:34.305Z,88849.59
2022-09-06T20:31:18.997Z,88844.63
2022-09-06T20:34:04.183Z,88844.06
2022-09-06T20:36:48.933Z,88838.97
2022-09-06T20:39:33.812Z,88850.19
2022-09-06T20:42:19.014Z,88845.75
2022-09-06T20:45:03.859Z,88844.31
2022-09-06T20:47:48.671Z,88845.75
2022-09-06T20:50:33.481Z,88857.00
2022-09-06T20:53:18.357Z,88855.00
2022-09-06T20:56:03.071Z,88852.56
2022-09-06T20:58:47.865Z,88857.22
2022-09-06T21:01:32.723Z,88857.03
2022-09-06T21:04:18.045Z,88855.25
2022-09-06T21:07:02.852Z,88856.91
2022-09-06T21:09:47.721Z,88867.53
2022-09-06T21:12:32.472Z,88861.50
2022-09-06T21:15:17.344Z,88864.50
2022-09-06T21:18:02.082Z,88863.41
2022-09-06T21:20:46.863Z,88878.88
2022-09-06T21:23:31.761Z,88869.28
2022-09-06T21:26:16.537Z,88872.13
2022-09-06T21:29:01.268Z,88867.03
